createdAt,value
2023-10-08T00:00:22.468Z,30.67
2023-10-08T00:00:54.535Z,30.00
2023-10-08T00:01:26.930Z,30.00
2023-10-08T00:01:58.905Z,30.00
2023-10-08T00:02:31.214Z,30.00
2023-10-08T00:03:06.379Z,30.00
2023-10-08T00:03:38.676Z,30.00
2023-10-08T00:04:11.188Z,30.00
2023-10-08T00:04:43.292Z,30.33
2023-10-08T00:05:15.549Z,31.00
2023-10-08T00:05:48.067Z,31.00
2023-10-08T00:06:21.997Z,31.00
2023-10-08T00:06:54.552Z,31.00
2023-10-08T00:07:26.526Z,30.33
2023-10-08T00:07:58.756Z,30.00
2023-10-08T00:08:30.788Z,30.00
2023-10-08T00:09:02.925Z,29.67
2023-10-08T00:09:35.283Z,29.00
2023-10-08T00:10:08.522Z,29.00
2023-10-08T00:10:47.154Z,29.00
2023-10-08T00:11:19.468Z,29.00
2023-10-08T00:11:51.603Z,29.00
2023-10-08T00:12:26.829Z,28.33
2023-10-08T00:12:59.607Z,28.00
2023-10-08T00:13:31.711Z,28.00
2023-10-08T00:14:05.639Z,28.00
2023-10-08T00:14:37.698Z,28.00
2023-10-08T00:15:09.903Z,28.00
2023-10-08T00:15:42.352Z,28.00
2023-10-08T00:16:15.288Z,28.00
2023-10-08T00:16:50.633Z,28.00
2023-10-08T00:17:22.753Z,28.00
2023-10-08T00:17:54.871Z,28.00
2023-10-08T00:18:27.038Z,28.00
2023-10-08T00:18:59.045Z,27.00
2023-10-08T00:19:31.105Z,27.00
2023-10-08T00:20:03.322Z,27.00
2023-10-08T00:20:36.674Z,27.00
2023-10-08T00:21:08.705Z,27.00
2023-10-08T00:21:40.734Z,27.00
2023-10-08T00:22:12.827Z,27.00
2023-10-08T00:22:44.855Z,27.00
2023-10-08T00:23:16.893Z,27.00
2023-10-08T00:23:49.021Z,27.00
2023-10-08T00:24:21.015Z,27.00
2023-10-08T00:24:53.089Z,27.33
2023-10-08T00:25:25.058Z,28.00
2023-10-08T00:26:00.299Z,29.00
2023-10-08T00:26:32.764Z,30.00
2023-10-08T00:27:04.839Z,30.67
2023-10-08T00:27:36.931Z,32.67
2023-10-08T00:28:09.612Z,35.00
2023-10-08T00:28:41.640Z,36.67
2023-10-08T00:29:15.484Z,38.33
2023-10-08T00:29:47.590Z,39.67
2023-10-08T00:30:19.677Z,40.00
2023-10-08T00:30:51.823Z,40.67
2023-10-08T00:31:24.121Z,41.00
2023-10-08T00:31:56.205Z,41.00
2023-10-08T00:32:28.355Z,41.00
2023-10-08T00:33:00.571Z,41.00
2023-10-08T00:33:33.036Z,40.33
2023-10-08T00:34:05.197Z,40.00
2023-10-08T00:34:37.227Z,40.00
2023-10-08T00:35:10.422Z,40.00
2023-10-08T00:35:43.328Z,40.00
2023-10-08T00:36:15.470Z,40.00
2023-10-08T00:36:49.030Z,40.67
2023-10-08T00:37:21.047Z,41.00
2023-10-08T00:37:53.095Z,41.00
2023-10-08T00:38:25.155Z,41.33
2023-10-08T00:38:57.162Z,42.00
2023-10-08T00:39:29.201Z,42.00
2023-10-08T00:40:01.283Z,42.00
2023-10-08T00:40:38.186Z,42.00
2023-10-08T00:41:13.669Z,42.33
2023-10-08T00:41:46.898Z,43.00
2023-10-08T00:42:19.039Z,43.00
2023-10-08T00:42:51.015Z,43.67
2023-10-08T00:43:32.363Z,44.33
2023-10-08T00:44:08.193Z,45.67
2023-10-08T00:44:41.769Z,47.00
2023-10-08T00:45:17.126Z,48.00
2023-10-08T00:45:49.178Z,48.00
2023-10-08T00:46:21.427Z,48.00
2023-10-08T00:46:53.675Z,48.00
2023-10-08T00:47:25.748Z,47.00
2023-10-08T00:47:58.032Z,47.33
2023-10-08T00:48:31.170Z,48.00
2023-10-08T00:49:04.105Z,48.00
2023-10-08T00:49:36.309Z,48.00
2023-10-08T00:50:08.866Z,48.00
2023-10-08T00:50:40.988Z,48.00
2023-10-08T00:51:14.049Z,48.00
2023-10-08T00:51:46.675Z,48.00
2023-10-08T00:52:18.895Z,48.00
2023-10-08T00:52:51.499Z,48.00
2023-10-08T00:53:24.198Z,48.00
2023-10-08T00:54:00.922Z,48.33
2023-10-08T00:54:33.297Z,49.00
2023-10-08T00:55:06.798Z,49.00
2023-10-08T00:55:39.595Z,49.00
2023-10-08T00:56:12.072Z,49.00
2023-10-08T00:56:47.639Z,49.00
2023-10-08T00:57:22.545Z,49.00
2023-10-08T00:57:59.478Z,49.00
2023-10-08T00:58:31.572Z,49.00
2023-10-08T00:59:03.812Z,49.33
2023-10-08T00:59:35.914Z,50.00
2023-10-08T01:00:10.971Z,50.33
2023-10-08T01:00:43.173Z,51.00
2023-10-08T01:01:16.159Z,51.33
2023-10-08T01:01:49.288Z,52.00
2023-10-08T01:02:21.528Z,52.67
2023-10-08T01:02:53.906Z,53.00
2023-10-08T01:03:26.690Z,54.00
2023-10-08T01:03:59.247Z,54.33
2023-10-08T01:04:32.000Z,55.00
2023-10-08T01:05:04.526Z,55.00
2023-10-08T01:05:36.650Z,55.00
2023-10-08T01:06:08.983Z,55.00
2023-10-08T01:06:41.151Z,55.67
2023-10-08T01:07:16.334Z,56.00
2023-10-08T01:07:50.905Z,56.00
2023-10-08T01:08:24.913Z,56.33
2023-10-08T01:08:57.051Z,57.00
2023-10-08T01:09:29.599Z,57.67
2023-10-08T01:10:01.620Z,59.33
2023-10-08T01:10:33.728Z,60.67
2023-10-08T01:11:26.544Z,61.67
2023-10-08T01:12:15.447Z,62.67
2023-10-08T01:12:48.084Z,63.00
2023-10-08T01:13:20.121Z,63.00
2023-10-08T01:13:52.149Z,63.33
2023-10-08T01:14:24.250Z,64.00
2023-10-08T01:14:56.498Z,65.00
2023-10-08T01:15:30.240Z,66.00
2023-10-08T01:16:02.421Z,66.00
2023-10-08T01:16:34.568Z,66.33
2023-10-08T01:17:06.685Z,67.00
2023-10-08T01:17:39.249Z,67.00
2023-10-08T01:18:11.552Z,67.00
2023-10-08T01:18:43.557Z,67.67
2023-10-08T01:19:19.564Z,68.00
2023-10-08T01:19:51.878Z,69.00
2023-10-08T01:20:23.986Z,69.00
2023-10-08T01:20:56.340Z,69.67
2023-10-08T01:21:29.884Z,70.00
2023-10-08T01:22:06.677Z,70.00
2023-10-08T01:22:38.767Z,71.00
2023-10-08T01:23:12.224Z,71.67
2023-10-08T01:23:45.897Z,72.00
2023-10-08T01:24:18.005Z,72.00
2023-10-08T01:24:50.596Z,72.00
2023-10-08T01:25:22.645Z,72.00
2023-10-08T01:25:54.671Z,72.00
2023-10-08T01:26:26.748Z,72.00
2023-10-08T01:26:58.881Z,72.00
2023-10-08T01:27:32.516Z,72.00
2023-10-08T01:28:05.464Z,72.00
2023-10-08T01:28:37.627Z,72.00
2023-10-08T01:29:13.249Z,72.00
2023-10-08T01:29:45.713Z,72.00
2023-10-08T01:30:17.838Z,72.00
2023-10-08T01:30:49.890Z,72.67
2023-10-08T01:31:22.014Z,73.67
2023-10-08T01:31:54.023Z,74.00
2023-10-08T01:32:26.077Z,74.67
2023-10-08T01:32:58.264Z,75.33
2023-10-08T01:33:30.609Z,76.00
2023-10-08T01:34:02.680Z,76.33
2023-10-08T01:34:34.719Z,77.00
2023-10-08T01:35:07.626Z,77.00
2023-10-08T01:35:40.864Z,77.00
2023-10-08T01:36:12.917Z,77.00
2023-10-08T01:36:44.993Z,77.00
2023-10-08T01:37:19.774Z,76.00
2023-10-08T01:37:52.048Z,76.00
2023-10-08T01:38:24.068Z,76.67
2023-10-08T01:38:56.367Z,77.00
2023-10-08T01:39:28.403Z,77.00
2023-10-08T01:40:00.592Z,78.00
2023-10-08T01:40:32.574Z,78.67
2023-10-08T01:41:05.164Z,80.67
2023-10-08T01:41:37.266Z,81.00
2023-10-08T01:42:09.843Z,81.00
2023-10-08T01:42:41.871Z,81.00
2023-10-08T01:43:13.885Z,81.00
2023-10-08T01:43:46.112Z,81.00
2023-10-08T01:44:18.252Z,80.00
2023-10-08T01:44:51.157Z,80.00
2023-10-08T01:45:23.424Z,80.00
2023-10-08T01:45:55.587Z,80.00
2023-10-08T01:46:27.709Z,80.00
2023-10-08T01:46:59.782Z,80.00
2023-10-08T01:47:31.959Z,80.00
2023-10-08T01:48:04.463Z,80.00
2023-10-08T01:48:36.590Z,80.67
2023-10-08T01:49:08.692Z,81.67
2023-10-08T01:49:40.807Z,83.67
2023-10-08T01:50:12.851Z,86.00
2023-10-08T01:50:44.930Z,89.00
2023-10-08T01:51:17.430Z,92.00
2023-10-08T01:51:49.443Z,94.00
2023-10-08T01:52:22.946Z,94.00
2023-10-08T01:52:55.045Z,93.33
2023-10-08T01:53:27.137Z,92.67
2023-10-08T01:53:59.729Z,92.00
2023-10-08T01:54:31.922Z,91.00
2023-10-08T01:55:04.984Z,91.00
2023-10-08T01:55:38.021Z,90.33
2023-10-08T01:56:10.137Z,90.00
2023-10-08T01:56:43.254Z,89.00
2023-10-08T01:57:15.938Z,88.33
2023-10-08T01:57:49.370Z,87.33
2023-10-08T01:58:24.379Z,86.33
2023-10-08T01:58:57.111Z,86.00
2023-10-08T01:59:32.866Z,86.00
2023-10-08T02:00:10.988Z,86.00
2023-10-08T02:00:44.312Z,85.00
2023-10-08T02:01:20.871Z,85.00
2023-10-08T02:01:52.991Z,84.00
2023-10-08T02:02:25.163Z,84.00
2023-10-08T02:02:57.441Z,84.00
2023-10-08T02:03:29.620Z,84.00
2023-10-08T02:04:02.692Z,83.00
2023-10-08T02:04:35.255Z,83.00
2023-10-08T02:05:07.897Z,83.00
2023-10-08T02:05:40.048Z,83.67
2023-10-08T02:06:12.033Z,84.00
2023-10-08T02:06:44.089Z,84.00
2023-10-08T02:07:16.098Z,84.00
2023-10-08T02:07:49.748Z,84.33
2023-10-08T02:08:21.854Z,85.00
2023-10-08T02:08:53.928Z,86.00
2023-10-08T02:09:26.057Z,86.33
2023-10-08T02:09:58.476Z,87.00
2023-10-08T02:10:30.484Z,87.00
2023-10-08T02:11:02.644Z,87.00
2023-10-08T02:11:46.957Z,87.00
2023-10-08T02:12:19.127Z,87.00
2023-10-08T02:12:51.216Z,87.00
2023-10-08T02:13:23.286Z,86.00
2023-10-08T02:13:55.307Z,86.00
2023-10-08T02:14:27.539Z,86.00
2023-10-08T02:14:59.573Z,85.67
2023-10-08T02:15:31.583Z,85.00
2023-10-08T02:16:04.029Z,85.00
2023-10-08T02:16:40.882Z,85.00
2023-10-08T02:17:13.424Z,85.00
2023-10-08T02:17:45.754Z,84.00
2023-10-08T02:18:17.884Z,83.33
2023-10-08T02:18:51.801Z,82.33
2023-10-08T02:19:25.358Z,81.67
2023-10-08T02:19:57.542Z,80.67
2023-10-08T02:20:29.577Z,79.33
2023-10-08T02:21:01.650Z,78.33
2023-10-08T02:21:33.757Z,78.00
2023-10-08T02:22:05.943Z,77.33
2023-10-08T02:22:38.020Z,77.00
2023-10-08T02:23:12.052Z,77.00
2023-10-08T02:23:44.132Z,77.00
2023-10-08T02:24:16.196Z,77.00
2023-10-08T02:24:48.311Z,77.00
2023-10-08T02:25:20.485Z,76.00
2023-10-08T02:25:52.526Z,76.00
2023-10-08T02:26:24.575Z,76.00
2023-10-08T02:26:56.796Z,76.00
2023-10-08T02:27:29.118Z,76.00
2023-10-08T02:28:02.557Z,76.00
2023-10-08T02:28:34.575Z,76.00
2023-10-08T02:29:07.310Z,76.00
2023-10-08T02:29:39.461Z,76.00
2023-10-08T02:30:12.460Z,76.67
2023-10-08T02:30:44.846Z,77.00
2023-10-08T02:31:16.955Z,78.00
2023-10-08T02:31:49.038Z,78.00
2023-10-08T02:32:21.128Z,79.00
2023-10-08T02:32:56.103Z,79.67
2023-10-08T02:33:28.642Z,80.00
2023-10-08T02:34:00.681Z,80.67
2023-10-08T02:34:32.740Z,81.33
2023-10-08T02:35:05.649Z,82.00
2023-10-08T02:35:37.748Z,82.67
2023-10-08T02:36:09.746Z,83.00
2023-10-08T02:36:44.012Z,83.00
2023-10-08T02:37:17.492Z,83.67
2023-10-08T02:37:49.565Z,84.00
2023-10-08T02:38:23.139Z,84.33
2023-10-08T02:38:55.178Z,85.00
2023-10-08T02:39:27.294Z,85.00
2023-10-08T02:39:59.544Z,85.67
2023-10-08T02:40:31.891Z,86.00
2023-10-08T02:41:04.030Z,86.00
2023-10-08T02:41:36.094Z,86.33
2023-10-08T02:42:08.283Z,87.00
2023-10-08T02:42:40.318Z,87.67
2023-10-08T02:43:12.407Z,88.00
2023-10-08T02:43:44.462Z,87.00
2023-10-08T02:44:17.581Z,87.00
2023-10-08T02:44:49.742Z,87.00
2023-10-08T02:45:21.837Z,87.00
2023-10-08T02:45:53.923Z,87.00
2023-10-08T02:46:26.237Z,87.00
2023-10-08T02:46:59.290Z,86.33
2023-10-08T02:47:31.635Z,86.00
2023-10-08T02:48:04.067Z,86.00
2023-10-08T02:48:36.365Z,86.00
2023-10-08T02:49:08.826Z,86.00
2023-10-08T02:49:41.353Z,86.00
2023-10-08T02:50:13.843Z,85.67
2023-10-08T02:50:46.033Z,85.00
2023-10-08T02:51:18.143Z,85.00
2023-10-08T02:51:52.705Z,85.00
2023-10-08T02:52:24.699Z,85.00
2023-10-08T02:52:56.765Z,84.33
2023-10-08T02:53:30.507Z,84.00
2023-10-08T02:54:02.545Z,83.00
2023-10-08T02:54:34.696Z,82.00
2023-10-08T02:55:09.650Z,81.67
2023-10-08T02:55:42.673Z,81.00
2023-10-08T02:56:14.824Z,81.00
2023-10-08T02:56:48.644Z,81.00
2023-10-08T02:57:20.692Z,81.33
2023-10-08T02:57:52.763Z,82.00
2023-10-08T02:58:24.808Z,82.00
2023-10-08T02:58:56.865Z,82.33
2023-10-08T02:59:33.690Z,83.00
2023-10-08T03:00:07.352Z,84.00
2023-10-08T03:00:39.469Z,84.67
2023-10-08T03:01:11.494Z,85.00
2023-10-08T03:01:43.578Z,85.00
2023-10-08T03:02:16.330Z,85.00
2023-10-08T03:02:48.535Z,85.00
2023-10-08T03:03:20.793Z,85.00
2023-10-08T03:03:55.377Z,85.00
2023-10-08T03:04:28.032Z,86.00
2023-10-08T03:05:00.072Z,86.00
2023-10-08T03:05:32.603Z,86.00
2023-10-08T03:06:04.949Z,86.00
2023-10-08T03:06:37.008Z,86.00
2023-10-08T03:07:09.053Z,86.33
2023-10-08T03:07:41.069Z,87.00
2023-10-08T03:08:13.542Z,87.67
2023-10-08T03:08:46.979Z,88.67
2023-10-08T03:09:19.725Z,89.67
2023-10-08T03:09:53.294Z,90.33
2023-10-08T03:10:34.653Z,91.00
2023-10-08T03:11:06.909Z,91.00
2023-10-08T03:11:41.839Z,91.00
2023-10-08T03:12:13.876Z,91.00
2023-10-08T03:12:46.776Z,91.00
2023-10-08T03:13:19.045Z,91.00
2023-10-08T03:13:51.218Z,91.00
2023-10-08T03:14:23.299Z,91.00
2023-10-08T03:14:58.597Z,91.00
2023-10-08T03:15:30.918Z,91.67
2023-10-08T03:16:03.454Z,92.00
2023-10-08T03:16:35.684Z,92.67
2023-10-08T03:17:07.666Z,93.67
2023-10-08T03:17:39.929Z,94.67
2023-10-08T03:18:12.232Z,95.33
2023-10-08T03:18:44.263Z,96.00
2023-10-08T03:19:16.512Z,96.67
2023-10-08T03:19:48.651Z,97.00
2023-10-08T03:20:21.300Z,96.67
2023-10-08T03:20:53.534Z,96.00
2023-10-08T03:21:25.664Z,96.00
2023-10-08T03:21:57.748Z,96.00
2023-10-08T03:22:29.814Z,96.00
2023-10-08T03:23:01.912Z,95.67
2023-10-08T03:23:34.141Z,95.00
2023-10-08T03:24:08.880Z,94.33
2023-10-08T03:24:41.034Z,93.33
2023-10-08T03:25:14.163Z,92.67
2023-10-08T03:25:46.157Z,91.67
2023-10-08T03:26:22.610Z,89.67
2023-10-08T03:26:54.730Z,87.00
2023-10-08T03:27:26.853Z,84.00
2023-10-08T03:27:58.934Z,82.00
2023-10-08T03:28:31.866Z,79.00
2023-10-08T03:29:05.706Z,76.00
2023-10-08T03:29:38.120Z,73.33
2023-10-08T03:30:10.779Z,72.00
2023-10-08T03:30:42.834Z,71.67
2023-10-08T03:31:15.621Z,70.33
2023-10-08T03:31:47.915Z,69.00
2023-10-08T03:32:20.398Z,67.33
2023-10-08T03:32:52.646Z,65.67
2023-10-08T03:33:25.123Z,65.33
2023-10-08T03:33:57.506Z,65.67
2023-10-08T03:34:29.578Z,66.00
2023-10-08T03:35:01.860Z,66.00
2023-10-08T03:35:35.900Z,66.00
2023-10-08T03:36:09.025Z,67.00
2023-10-08T03:36:41.406Z,67.00
2023-10-08T03:37:15.351Z,68.00
2023-10-08T03:37:47.338Z,68.00
2023-10-08T03:38:20.337Z,68.00
2023-10-08T03:38:53.192Z,68.00
2023-10-08T03:39:27.058Z,67.67
2023-10-08T03:39:59.149Z,67.00
2023-10-08T03:40:31.597Z,67.00
2023-10-08T03:41:03.826Z,66.00
2023-10-08T03:41:36.250Z,66.00
2023-10-08T03:42:08.306Z,65.00
2023-10-08T03:42:40.387Z,65.00
2023-10-08T03:43:12.411Z,64.67
2023-10-08T03:43:44.553Z,64.00
2023-10-08T03:44:16.655Z,64.00
2023-10-08T03:44:48.668Z,64.67
2023-10-08T03:45:20.858Z,65.00
2023-10-08T03:45:52.911Z,65.00
2023-10-08T03:46:25.028Z,64.33
2023-10-08T03:46:57.092Z,64.00
2023-10-08T03:47:29.569Z,64.00
2023-10-08T03:48:01.756Z,64.00
2023-10-08T03:48:34.127Z,64.00
2023-10-08T03:49:06.511Z,64.00
2023-10-08T03:49:43.567Z,64.00
2023-10-08T03:50:15.883Z,64.00
2023-10-08T03:50:47.995Z,64.00
2023-10-08T03:51:20.055Z,64.00
2023-10-08T03:51:53.516Z,64.00
2023-10-08T03:52:28.743Z,64.00
2023-10-08T03:53:01.130Z,64.00
2023-10-08T03:53:33.250Z,64.00
2023-10-08T03:54:06.690Z,64.00
2023-10-08T03:54:40.102Z,64.00
2023-10-08T03:55:12.762Z,64.00
2023-10-08T03:55:44.867Z,64.00
2023-10-08T03:56:16.929Z,64.00
2023-10-08T03:56:48.974Z,64.00
2023-10-08T03:57:21.052Z,64.00
2023-10-08T03:57:53.159Z,63.33
2023-10-08T03:58:25.228Z,63.00
2023-10-08T03:58:57.569Z,63.00
2023-10-08T03:59:29.658Z,62.67
2023-10-08T04:00:01.831Z,62.00
2023-10-08T04:00:33.890Z,62.00
2023-10-08T04:01:07.581Z,62.00
2023-10-08T04:01:40.101Z,62.00
2023-10-08T04:02:12.664Z,62.00
2023-10-08T04:02:44.830Z,62.00
2023-10-08T04:03:17.110Z,62.00
2023-10-08T04:03:49.322Z,62.00
2023-10-08T04:04:21.463Z,62.00
2023-10-08T04:04:53.589Z,62.00
2023-10-08T04:05:26.355Z,62.00
2023-10-08T04:05:58.453Z,62.00
2023-10-08T04:06:31.124Z,62.00
2023-10-08T04:07:03.200Z,62.00
2023-10-08T04:07:35.332Z,62.33
2023-10-08T04:08:07.427Z,63.00
2023-10-08T04:08:39.651Z,63.00
2023-10-08T04:09:11.878Z,63.00
2023-10-08T04:09:45.632Z,63.00
2023-10-08T04:10:17.708Z,64.00
2023-10-08T04:10:49.807Z,64.00
2023-10-08T04:11:22.191Z,65.00
2023-10-08T04:11:56.504Z,65.00
2023-10-08T04:12:40.528Z,66.00
2023-10-08T04:13:12.750Z,66.00
2023-10-08T04:13:44.837Z,66.00
2023-10-08T04:14:18.531Z,66.67
2023-10-08T04:14:50.638Z,67.00
2023-10-08T04:15:25.805Z,67.00
2023-10-08T04:15:58.511Z,67.00
2023-10-08T04:16:31.232Z,67.00
2023-10-08T04:17:03.694Z,67.00
2023-10-08T04:17:37.003Z,67.00
2023-10-08T04:18:09.865Z,67.00
2023-10-08T04:18:42.059Z,67.00
2023-10-08T04:19:14.688Z,67.00
2023-10-08T04:19:46.885Z,67.67
2023-10-08T04:20:18.979Z,68.00
2023-10-08T04:20:51.152Z,68.00
2023-10-08T04:21:23.642Z,69.00
2023-10-08T04:21:56.318Z,69.33
2023-10-08T04:22:31.052Z,70.00
2023-10-08T04:23:04.991Z,71.00
2023-10-08T04:23:37.167Z,72.00
2023-10-08T04:24:09.651Z,72.00
2023-10-08T04:24:45.891Z,72.67
2023-10-08T04:25:18.235Z,73.00
2023-10-08T04:25:50.300Z,73.00
2023-10-08T04:26:22.335Z,73.00
2023-10-08T04:26:54.619Z,73.00
2023-10-08T04:27:26.645Z,73.00
2023-10-08T04:28:00.218Z,73.33
2023-10-08T04:28:32.858Z,74.00
2023-10-08T04:29:05.051Z,74.00
2023-10-08T04:29:37.325Z,74.00
2023-10-08T04:30:10.541Z,74.67
2023-10-08T04:30:42.714Z,75.00
2023-10-08T04:31:14.798Z,76.00
2023-10-08T04:31:47.532Z,76.33
2023-10-08T04:32:19.711Z,77.00
2023-10-08T04:32:51.842Z,77.00
2023-10-08T04:33:25.634Z,77.67
2023-10-08T04:33:57.950Z,78.00
2023-10-08T04:34:30.275Z,78.00
2023-10-08T04:35:02.293Z,78.67
2023-10-08T04:35:34.958Z,79.00
2023-10-08T04:36:06.994Z,80.33
2023-10-08T04:36:39.105Z,81.33
2023-10-08T04:37:11.980Z,82.00
2023-10-08T04:37:43.973Z,82.00
2023-10-08T04:38:16.835Z,82.00
2023-10-08T04:38:49.307Z,83.00
2023-10-08T04:39:21.885Z,83.00
2023-10-08T04:39:55.291Z,83.00
2023-10-08T04:40:27.329Z,83.00
2023-10-08T04:40:59.689Z,83.67
2023-10-08T04:41:31.772Z,84.00
2023-10-08T04:42:04.208Z,84.33
2023-10-08T04:42:36.269Z,85.00
2023-10-08T04:43:08.285Z,85.00
2023-10-08T04:43:40.327Z,86.00
2023-10-08T04:44:12.846Z,86.00
2023-10-08T04:44:44.996Z,87.00
2023-10-08T04:45:17.084Z,87.00
2023-10-08T04:45:49.150Z,87.33
2023-10-08T04:46:21.725Z,88.00
2023-10-08T04:46:53.858Z,88.33
2023-10-08T04:47:26.149Z,89.67
2023-10-08T04:47:58.254Z,90.33
2023-10-08T04:48:30.475Z,91.00
2023-10-08T04:49:02.610Z,91.00
2023-10-08T04:49:34.760Z,91.00
2023-10-08T04:50:07.494Z,91.00
2023-10-08T04:50:39.672Z,90.33
2023-10-08T04:51:12.631Z,90.00
2023-10-08T04:51:44.855Z,90.00
2023-10-08T04:52:16.973Z,89.33
2023-10-08T04:52:49.009Z,89.00
2023-10-08T04:53:20.978Z,89.00
2023-10-08T04:53:53.438Z,89.00
2023-10-08T04:54:26.491Z,89.00
2023-10-08T04:55:00.720Z,89.00
2023-10-08T04:55:32.778Z,89.00
2023-10-08T04:56:07.321Z,88.67
2023-10-08T04:56:39.803Z,88.00
2023-10-08T04:57:11.855Z,88.00
2023-10-08T04:57:44.089Z,88.00
2023-10-08T04:58:16.174Z,88.00
2023-10-08T04:58:49.082Z,88.00
2023-10-08T04:59:21.119Z,88.00
2023-10-08T04:59:53.407Z,88.33
2023-10-08T05:00:25.470Z,89.00
2023-10-08T05:01:00.992Z,90.00
2023-10-08T05:01:33.238Z,91.33
2023-10-08T05:02:06.651Z,93.67
2023-10-08T05:02:38.727Z,95.33
2023-10-08T05:03:10.892Z,97.33
2023-10-08T05:03:42.994Z,98.33
2023-10-08T05:04:19.241Z,99.67
2023-10-08T05:04:52.298Z,101.00
2023-10-08T05:05:24.697Z,101.67
2023-10-08T05:05:56.900Z,103.33
2023-10-08T05:06:31.359Z,106.00
2023-10-08T05:07:03.394Z,109.00
2023-10-08T05:07:35.407Z,110.67
2023-10-08T05:08:07.476Z,111.67
2023-10-08T05:08:39.546Z,113.00
2023-10-08T05:09:13.028Z,114.00
2023-10-08T05:09:46.499Z,113.00
2023-10-08T05:10:20.083Z,112.00
2023-10-08T05:10:52.404Z,112.00
2023-10-08T05:11:24.495Z,112.33
2023-10-08T05:11:57.093Z,113.33
2023-10-08T05:12:29.153Z,114.00
2023-10-08T05:13:01.178Z,114.00
2023-10-08T05:13:33.189Z,114.00
2023-10-08T05:14:05.376Z,114.00
2023-10-08T05:14:37.502Z,114.00
2023-10-08T05:15:10.364Z,115.00
2023-10-08T05:15:42.921Z,115.00
2023-10-08T05:16:15.143Z,115.00
2023-10-08T05:16:47.219Z,115.00
2023-10-08T05:17:19.655Z,115.00
2023-10-08T05:17:52.046Z,115.00
2023-10-08T05:18:24.824Z,115.00
2023-10-08T05:18:57.129Z,115.00
2023-10-08T05:19:29.212Z,114.00
2023-10-08T05:20:01.208Z,114.00
2023-10-08T05:20:33.286Z,114.00
2023-10-08T05:21:05.326Z,114.00
2023-10-08T05:21:37.356Z,113.33
2023-10-08T05:22:10.225Z,113.00
2023-10-08T05:22:42.313Z,113.00
2023-10-08T05:23:15.240Z,113.00
2023-10-08T05:23:47.304Z,113.00
2023-10-08T05:24:20.609Z,112.00
2023-10-08T05:24:52.965Z,112.00
2023-10-08T05:25:26.450Z,111.67
2023-10-08T05:25:59.391Z,111.00
2023-10-08T05:26:31.520Z,111.00
2023-10-08T05:27:03.615Z,110.33
2023-10-08T05:27:37.333Z,109.33
2023-10-08T05:28:09.417Z,109.00
2023-10-08T05:28:41.480Z,109.00
2023-10-08T05:29:13.808Z,109.00
2023-10-08T05:29:46.027Z,109.00
2023-10-08T05:30:20.166Z,109.00
2023-10-08T05:30:52.632Z,108.33
2023-10-08T05:31:29.017Z,107.33
2023-10-08T05:32:01.073Z,106.00
2023-10-08T05:32:33.363Z,106.00
2023-10-08T05:33:06.928Z,106.00
2023-10-08T05:33:39.141Z,106.00
2023-10-08T05:34:11.192Z,106.00
2023-10-08T05:34:43.177Z,106.00
2023-10-08T05:35:15.321Z,106.00
2023-10-08T05:35:47.673Z,106.67
2023-10-08T05:36:19.798Z,107.67
2023-10-08T05:36:51.957Z,108.67
2023-10-08T05:37:24.151Z,109.00
2023-10-08T05:37:59.465Z,110.00
2023-10-08T05:38:34.069Z,110.00
2023-10-08T05:39:06.173Z,110.00
2023-10-08T05:39:38.759Z,110.00
2023-10-08T05:40:11.521Z,110.33
2023-10-08T05:40:45.491Z,111.67
2023-10-08T05:41:17.559Z,113.67
2023-10-08T05:41:50.212Z,115.00
2023-10-08T05:42:22.282Z,115.00
2023-10-08T05:42:54.427Z,115.00
2023-10-08T05:43:28.720Z,114.67
2023-10-08T05:44:02.868Z,114.00
2023-10-08T05:44:35.012Z,114.00
2023-10-08T05:45:07.788Z,113.67
2023-10-08T05:45:39.830Z,113.00
2023-10-08T05:46:14.844Z,113.00
2023-10-08T05:46:47.851Z,113.00
2023-10-08T05:47:20.198Z,113.00
2023-10-08T05:47:52.271Z,113.00
2023-10-08T05:48:24.503Z,113.00
2023-10-08T05:48:59.441Z,113.00
2023-10-08T05:49:31.516Z,113.00
2023-10-08T05:50:05.922Z,113.33
2023-10-08T05:50:37.995Z,115.00
2023-10-08T05:51:10.160Z,117.00
2023-10-08T05:51:43.594Z,118.67
2023-10-08T05:52:15.586Z,121.00
2023-10-08T05:52:49.150Z,124.00
2023-10-08T05:53:21.209Z,126.67
2023-10-08T05:53:53.336Z,129.33
2023-10-08T05:54:26.449Z,130.67
2023-10-08T05:55:00.017Z,131.67
2023-10-08T05:55:33.079Z,131.00
2023-10-08T05:56:10.110Z,130.00
2023-10-08T05:56:42.289Z,129.00
2023-10-08T05:57:14.429Z,128.33
2023-10-08T05:57:46.406Z,128.00
2023-10-08T05:58:18.614Z,127.33
2023-10-08T05:58:50.605Z,127.00
2023-10-08T05:59:22.642Z,127.33
2023-10-08T05:59:54.821Z,128.00
2023-10-08T06:00:27.289Z,129.00
2023-10-08T06:00:59.360Z,129.33
2023-10-08T06:01:31.395Z,130.00
2023-10-08T06:02:03.444Z,131.00
2023-10-08T06:02:36.245Z,131.33
2023-10-08T06:03:08.548Z,132.00
2023-10-08T06:03:40.879Z,131.00
2023-10-08T06:04:13.304Z,131.00
2023-10-08T06:04:45.391Z,130.00
2023-10-08T06:05:17.415Z,130.00
2023-10-08T06:05:49.463Z,129.67
2023-10-08T06:06:21.515Z,129.00
2023-10-08T06:06:54.316Z,129.00
2023-10-08T06:07:27.349Z,129.00
2023-10-08T06:07:59.573Z,128.33
2023-10-08T06:08:31.786Z,128.33
2023-10-08T06:09:05.615Z,129.00
2023-10-08T06:09:37.817Z,129.00
2023-10-08T06:10:11.098Z,129.00
2023-10-08T06:10:43.127Z,129.00
2023-10-08T06:11:17.223Z,130.00
2023-10-08T06:11:50.432Z,130.67
2023-10-08T06:12:22.544Z,131.67
2023-10-08T06:12:54.620Z,132.33
2023-10-08T06:13:26.674Z,133.00
2023-10-08T06:13:58.730Z,134.00
2023-10-08T06:14:30.827Z,134.67
2023-10-08T06:15:03.104Z,136.33
2023-10-08T06:15:37.334Z,137.67
2023-10-08T06:16:09.764Z,139.67
2023-10-08T06:16:43.898Z,140.00
2023-10-08T06:17:16.534Z,141.00
2023-10-08T06:17:52.361Z,140.33
2023-10-08T06:18:27.457Z,140.33
2023-10-08T06:18:59.691Z,141.33
2023-10-08T06:19:36.690Z,142.00
2023-10-08T06:20:09.778Z,143.00
2023-10-08T06:20:42.492Z,144.33
2023-10-08T06:21:14.504Z,145.67
2023-10-08T06:21:46.524Z,147.00
2023-10-08T06:22:18.583Z,146.00
2023-10-08T06:22:50.559Z,145.33
2023-10-08T06:23:23.914Z,145.00
2023-10-08T06:23:56.146Z,146.00
2023-10-08T06:24:28.243Z,146.67
2023-10-08T06:25:03.965Z,147.67
2023-10-08T06:25:36.052Z,148.00
2023-10-08T06:26:08.197Z,148.00
2023-10-08T06:26:41.868Z,148.00
2023-10-08T06:27:13.962Z,148.00
2023-10-08T06:27:46.060Z,148.00
2023-10-08T06:28:19.236Z,148.00
2023-10-08T06:28:51.784Z,148.00
2023-10-08T06:29:23.907Z,148.00
2023-10-08T06:29:56.015Z,148.00
2023-10-08T06:30:28.146Z,148.00
2023-10-08T06:31:00.179Z,148.00
2023-10-08T06:31:32.288Z,148.67
2023-10-08T06:32:04.646Z,149.33
2023-10-08T06:32:36.780Z,150.33
2023-10-08T06:33:10.781Z,151.00
2023-10-08T06:33:44.651Z,151.00
2023-10-08T06:34:16.741Z,151.00
2023-10-08T06:34:49.011Z,150.00
2023-10-08T06:35:21.281Z,150.00
2023-10-08T06:35:53.622Z,150.00
2023-10-08T06:36:25.955Z,150.33
2023-10-08T06:36:59.434Z,151.00
2023-10-08T06:37:31.521Z,152.00
2023-10-08T06:38:04.273Z,153.00
2023-10-08T06:38:36.762Z,154.33
2023-10-08T06:39:09.197Z,155.33
2023-10-08T06:39:41.276Z,157.33
2023-10-08T06:40:13.940Z,159.33
2023-10-08T06:40:45.979Z,162.67
2023-10-08T06:41:33.069Z,165.67
2023-10-08T06:42:11.923Z,168.67
2023-10-08T06:42:44.134Z,169.67
2023-10-08T06:43:16.160Z,171.00
2023-10-08T06:43:51.212Z,173.00
2023-10-08T06:44:23.263Z,176.67
2023-10-08T06:44:55.330Z,177.67
2023-10-08T06:45:27.429Z,177.00
2023-10-08T06:45:59.920Z,176.33
2023-10-08T06:46:32.122Z,177.00
2023-10-08T06:47:04.839Z,178.67
2023-10-08T06:47:36.981Z,180.00
2023-10-08T06:48:09.261Z,179.33
2023-10-08T06:48:42.401Z,179.33
2023-10-08T06:49:15.312Z,180.33
2023-10-08T06:49:48.095Z,182.00
2023-10-08T06:50:21.324Z,183.33
2023-10-08T06:50:54.533Z,186.00
2023-10-08T06:51:26.665Z,186.00
2023-10-08T06:52:00.604Z,184.33
2023-10-08T06:52:42.088Z,183.33
2023-10-08T06:53:14.763Z,182.00
2023-10-08T06:53:54.013Z,181.33
2023-10-08T06:54:30.513Z,180.67
2023-10-08T06:55:07.946Z,179.67
2023-10-08T06:55:47.651Z,179.00
2023-10-08T06:56:19.980Z,179.00
2023-10-08T06:56:52.081Z,178.00
2023-10-08T06:57:25.685Z,178.00
2023-10-08T06:57:58.098Z,178.00
2023-10-08T06:58:30.160Z,178.00
2023-10-08T06:59:02.184Z,178.00